Time;durP1;ratioP1;P1;durP2;ratioP2;P2;SDS_P1;SDS_P2;PMS_P1;PMS_P2;Temp;Humidity;BMP_temperature;BMP_pressure;BME280_temperature;BME280_humidity;BME280_pressure;Samples;Min_cycle;Max_cycle;Signal;HPM_P1;HPM_P2
2021/07/16 00:00:15;;;;;;;10.27;4.20;;;;;;;26.83;36.65;94815.19;5030830;28;20181;-71
2021/07/16 00:02:44;;;;;;;8.83;3.90;;;;;;;26.80;36.52;94815.91;5030894;28;20201;-73
2021/07/16 00:05:12;;;;;;;7.40;4.03;;;;;;;26.84;36.33;94799.84;5021747;28;20225;-74
2021/07/16 00:07:40;;;;;;;7.43;4.33;;;;;;;26.86;36.77;94801.00;5025411;28;20205;-76
2021/07/16 00:10:10;;;;;;;8.77;4.00;;;;;;;26.90;36.24;94795.69;5030900;28;20200;-74
2021/07/16 00:12:37;;;;;;;4.93;3.73;;;;;;;26.94;36.06;94801.91;5034921;28;20215;-76
2021/07/16 00:15:06;;;;;;;6.73;3.70;;;;;;;26.76;36.34;94796.25;5034256;28;20735;-74
2021/07/16 00:17:34;;;;;;;6.60;4.07;;;;;;;26.78;36.40;94788.63;5033874;28;20193;-71
2021/07/16 00:20:02;;;;;;;12.97;4.47;;;;;;;26.76;36.45;94777.44;5020072;28;20212;-74
2021/07/16 00:22:29;;;;;;;9.13;4.33;;;;;;;26.70;36.38;94770.81;5023149;28;20288;-70
2021/07/16 00:24:56;;;;;;;5.87;3.70;;;;;;;26.72;36.14;94762.38;5028936;28;20296;-73
2021/07/16 00:27:24;;;;;;;7.90;3.80;;;;;;;26.72;36.16;94765.84;5021628;28;20205;-76
2021/07/16 00:29:52;;;;;;;10.00;3.50;;;;;;;26.75;35.53;94759.00;5026569;28;20231;-73
2021/07/16 00:32:19;;;;;;;6.47;3.63;;;;;;;26.73;35.97;94756.63;5010609;28;20189;-70
2021/07/16 00:34:46;;;;;;;8.63;3.50;;;;;;;26.77;35.92;94762.84;5019331;28;20304;-70
2021/07/16 00:37:19;;;;;;;10.47;4.20;;;;;;;26.80;35.90;94751.41;5029609;28;20197;-74
2021/07/16 00:39:45;;;;;;;8.10;3.30;;;;;;;26.63;36.05;94741.09;5029937;28;20276;-73
2021/07/16 00:42:12;;;;;;;10.53;3.50;;;;;;;26.35;36.46;94734.50;5029475;28;20233;-71
2021/07/16 00:44:39;;;;;;;10.50;3.90;;;;;;;26.59;36.09;94744.84;5029466;28;20232;-72
2021/07/16 00:47:08;;;;;;;8.73;3.77;;;;;;;26.68;36.03;94742.69;5030250;28;20230;-71
2021/07/16 00:49:35;;;;;;;7.33;4.03;;;;;;;26.74;35.81;94757.41;5029529;28;20205;-70
2021/07/16 00:52:03;;;;;;;9.80;3.63;;;;;;;26.67;36.11;94768.81;5029984;28;20223;-72
2021/07/16 00:54:30;;;;;;;7.57;4.10;;;;;;;26.60;36.40;94773.28;5029184;28;20197;-74
2021/07/16 00:56:58;;;;;;;5.43;3.23;;;;;;;26.51;36.58;94770.84;5019590;28;20221;-71
2021/07/16 00:59:25;;;;;;;8.27;3.30;;;;;;;26.60;36.05;94763.31;5013324;28;20191;-72
2021/07/16 01:01:56;;;;;;;10.67;3.93;;;;;;;26.47;36.09;94756.59;5030852;28;20196;-73
2021/07/16 01:04:25;;;;;;;9.10;3.67;;;;;;;26.64;35.79;94761.44;5031081;28;20252;-75
2021/07/16 01:06:52;;;;;;;8.03;3.50;;;;;;;26.64;36.06;94768.75;5030567;28;20197;-71
2021/07/16 01:09:19;;;;;;;8.33;3.43;;;;;;;26.51;36.47;94772.75;5029506;28;20201;-72
2021/07/16 01:11:46;;;;;;;5.50;3.50;;;;;;;26.44;36.46;94776.09;5019172;28;20197;-75
2021/07/16 01:14:14;;;;;;;7.00;3.97;;;;;;;26.51;36.72;94776.22;5031320;28;20205;-69
2021/07/16 01:16:42;;;;;;;8.23;3.83;;;;;;;26.46;37.17;94778.44;5024892;28;20201;-79
2021/07/16 01:19:15;;;;;;;10.20;4.27;;;;;;;26.36;37.16;94769.06;5010231;28;20220;-74
2021/07/16 01:21:46;;;;;;;11.50;4.57;;;;;;;26.42;37.57;94772.97;5023826;28;20237;-79
2021/07/16 01:24:13;;;;;;;7.80;4.63;;;;;;;26.28;38.33;94767.38;5009762;28;20711;-72
2021/07/16 01:26:42;;;;;;;10.33;4.63;;;;;;;26.33;38.40;94764.38;5027786;28;20213;-80
2021/07/16 01:29:12;;;;;;;11.37;5.70;;;;;;;26.18;38.59;94762.59;5029957;28;20254;-73
2021/07/16 01:31:40;;;;;;;9.87;5.70;;;;;;;26.04;38.98;94751.56;5016817;28;20226;-76
2021/07/16 01:34:08;;;;;;;11.23;5.60;;;;;;;26.07;39.21;94744.72;5034655;28;20201;-77
2021/07/16 01:36:36;;;;;;;10.67;5.37;;;;;;;26.04;39.43;94748.88;5036820;28;20228;-77
2021/07/16 01:39:04;;;;;;;13.83;5.87;;;;;;;25.97;38.83;94751.41;5022892;28;20220;-72
2021/07/16 01:41:31;;;;;;;11.00;6.10;;;;;;;25.92;39.07;94743.66;5034844;28;20241;-75
2021/07/16 01:43:58;;;;;;;9.60;5.57;;;;;;;25.83;39.42;94751.16;5032961;28;20303;-77
2021/07/16 01:46:25;;;;;;;15.70;5.43;;;;;;;25.68;39.23;94743.94;5035130;28;20189;-68
2021/07/16 01:48:52;;;;;;;13.70;5.47;;;;;;;25.47;40.07;94727.44;5033719;28;20564;-75
2021/07/16 01:51:20;;;;;;;15.17;5.47;;;;;;;25.53;39.77;94744.81;5027312;28;20281;-77
2021/07/16 01:53:48;;;;;;;9.13;5.23;;;;;;;25.44;39.94;94749.59;5027900;28;20209;-72
2021/07/16 01:56:17;;;;;;;9.63;5.27;;;;;;;25.46;39.73;94744.66;5025576;28;20203;-73
2021/07/16 01:58:46;;;;;;;12.93;5.50;;;;;;;25.61;39.88;94749.97;5032562;28;20573;-80
2021/07/16 02:01:14;;;;;;;8.97;5.73;;;;;;;25.65;39.89;94744.66;5033030;28;20251;-74
2021/07/16 02:03:45;;;;;;;10.37;5.20;;;;;;;25.67;40.16;94753.16;5022911;28;20206;-80
2021/07/16 02:06:13;;;;;;;10.67;5.20;;;;;;;25.58;40.57;94749.91;5026901;28;20201;-75
2021/07/16 02:08:45;;;;;;;9.27;5.23;;;;;;;25.55;40.62;94745.22;5013171;28;20605;-72
2021/07/16 02:11:12;;;;;;;7.07;4.97;;;;;;;25.69;40.07;94740.16;5028173;28;20198;-73
2021/07/16 02:13:39;;;;;;;10.23;5.67;;;;;;;25.58;40.45;94745.28;5024677;28;20198;-72
2021/07/16 02:16:06;;;;;;;12.17;5.17;;;;;;;25.59;40.72;94746.84;5013304;28;20202;-73
2021/07/16 02:18:34;;;;;;;7.80;4.80;;;;;;;25.49;40.30;94741.28;5033531;28;20281;-73
2021/07/16 02:21:01;;;;;;;10.23;4.77;;;;;;;25.47;40.45;94741.66;5032726;28;20323;-71
2021/07/16 02:23:29;;;;;;;7.80;5.33;;;;;;;25.46;40.77;94742.75;5032662;28;20193;-68
2021/07/16 02:25:57;;;;;;;8.20;4.70;;;;;;;25.41;40.60;94734.22;5021747;28;20261;-78
2021/07/16 02:28:27;;;;;;;7.87;4.83;;;;;;;25.39;40.33;94731.88;5031266;28;20329;-69
2021/07/16 02:30:54;;;;;;;9.10;4.90;;;;;;;25.30;40.56;94727.81;5032246;28;20906;-69
2021/07/16 02:33:22;;;;;;;11.17;4.90;;;;;;;25.27;40.21;94728.53;5030871;28;20197;-66
2021/07/16 02:35:51;;;;;;;12.03;5.30;;;;;;;25.23;41.14;94725.00;5030191;28;20246;-74
2021/07/16 02:38:18;;;;;;;9.60;5.03;;;;;;;25.21;41.02;94721.88;5032432;28;20664;-70
2021/07/16 02:40:45;;;;;;;10.10;5.50;;;;;;;25.20;41.66;94717.66;5031366;28;20205;-69
2021/07/16 02:43:14;;;;;;;8.67;5.00;;;;;;;25.27;41.59;94733.91;5031566;28;20201;-73
2021/07/16 02:45:43;;;;;;;10.67;5.00;;;;;;;25.07;41.60;94730.41;5031747;28;20665;-69
2021/07/16 02:48:10;;;;;;;9.97;6.00;;;;;;;25.09;41.96;94734.28;5032183;28;20192;-70
2021/07/16 02:50:40;;;;;;;7.93;5.70;;;;;;;25.03;42.19;94740.28;5032069;28;20213;-70
2021/07/16 02:53:09;;;;;;;8.23;5.60;;;;;;;25.09;42.12;94746.91;5032293;28;20201;-74
2021/07/16 02:55:37;;;;;;;12.23;6.03;;;;;;;25.15;42.07;94747.41;5017966;28;20680;-75
2021/07/16 02:58:04;;;;;;;8.30;5.37;;;;;;;25.02;42.34;94752.91;5031789;28;20288;-68
2021/07/16 03:00:32;;;;;;;7.97;5.33;;;;;;;25.01;42.63;94751.34;5031725;28;20193;-71
2021/07/16 03:03:00;;;;;;;11.37;5.40;;;;;;;24.99;42.51;94742.09;5027213;28;20221;-72
2021/07/16 03:05:30;;;;;;;11.57;5.73;;;;;;;24.78;42.48;94728.97;5022075;28;20248;-69
2021/07/16 03:07:58;;;;;;;12.60;5.20;;;;;;;24.91;42.84;94749.19;5031596;28;20259;-73
2021/07/16 03:10:37;;;;;;;11.50;5.40;;;;;;;24.80;43.08;94742.81;5021597;28;20216;-74
2021/07/16 03:13:08;;;;;;;12.67;5.50;;;;;;;24.88;43.02;94749.91;5029153;28;20193;-71
2021/07/16 03:15:35;;;;;;;10.70;5.07;;;;;;;24.88;43.19;94746.44;5038737;28;20247;-74
2021/07/16 03:18:06;;;;;;;9.87;4.93;;;;;;;24.64;42.86;94755.44;5023226;28;20200;-77
2021/07/16 03:20:38;;;;;;;12.67;5.33;;;;;;;24.55;43.37;94754.84;5025263;28;20209;-75
2021/07/16 03:23:09;;;;;;;7.23;4.53;;;;;;;24.70;42.88;94764.81;5029204;28;20224;-71
2021/07/16 03:25:37;;;;;;;8.97;4.70;;;;;;;24.53;43.37;94767.00;5027495;28;20243;-69
2021/07/16 03:28:10;;;;;;;9.70;4.50;;;;;;;24.60;43.39;94757.25;5035525;28;20572;-74
2021/07/16 03:30:39;;;;;;;6.57;4.43;;;;;;;24.64;43.00;94755.44;5029045;28;20208;-71
2021/07/16 03:33:06;;;;;;;7.93;4.70;;;;;;;24.33;44.03;94757.31;5030156;28;20764;-77
2021/07/16 03:35:34;;;;;;;10.83;5.70;;;;;;;24.23;43.89;94758.63;5027977;28;20287;-74
2021/07/16 03:38:02;;;;;;;9.40;4.97;;;;;;;24.10;43.91;94735.72;5032464;28;20196;-69
2021/07/16 03:40:30;;;;;;;10.10;4.93;;;;;;;24.24;43.54;94752.13;5031036;28;20236;-69
2021/07/16 03:43:00;;;;;;;12.43;4.97;;;;;;;23.96;43.51;94751.38;5031689;28;20235;-78
2021/07/16 03:45:32;;;;;;;10.13;5.23;;;;;;;24.12;43.51;94760.25;5031118;28;20310;-71
2021/07/16 03:48:00;;;;;;;12.00;6.73;;;;;;;24.01;43.39;94759.94;5029750;28;20663;-76
2021/07/16 03:50:28;;;;;;;12.73;6.20;;;;;;;23.77;43.86;94759.28;5030042;28;20263;-71
2021/07/16 03:52:55;;;;;;;10.73;6.67;;;;;;;23.38;44.75;94752.03;5027717;28;20236;-70
2021/07/16 03:55:22;;;;;;;11.70;7.13;;;;;;;23.61;44.66;94764.56;5029595;28;20270;-70
2021/07/16 03:57:50;;;;;;;10.07;7.07;;;;;;;23.80;44.50;94771.97;5016912;28;20228;-72
2021/07/16 04:00:26;;;;;;;12.80;6.43;;;;;;;23.86;44.08;94762.56;5030245;28;20870;-72
2021/07/16 04:02:53;;;;;;;14.03;6.50;;;;;;;24.06;44.12;94758.94;5027632;28;20197;-68
2021/07/16 04:05:21;;;;;;;11.67;6.50;;;;;;;24.18;44.22;94760.78;5029278;28;20270;-69
2021/07/16 04:07:50;;;;;;;9.03;6.77;;;;;;;24.23;44.33;94750.59;5028347;28;20228;-68
2021/07/16 04:10:20;;;;;;;15.43;7.80;;;;;;;24.34;44.28;94762.34;5030940;28;20189;-72
2021/07/16 04:12:56;;;;;;;12.97;7.57;;;;;;;24.39;44.46;94758.63;5030510;28;20198;-74
2021/07/16 04:15:27;;;;;;;11.93;7.37;;;;;;;24.37;44.27;94761.66;5031333;28;20208;-72
2021/07/16 04:17:55;;;;;;;17.57;8.63;;;;;;;24.47;44.64;94760.38;5029187;28;20211;-75
2021/07/16 04:20:23;;;;;;;16.03;8.13;;;;;;;24.43;44.09;94754.13;5028732;28;20201;-72
2021/07/16 04:22:50;;;;;;;19.60;8.30;;;;;;;24.52;44.80;94768.13;5029770;28;20280;-70
2021/07/16 04:25:18;;;;;;;15.20;8.53;;;;;;;24.65;44.72;94770.38;5029861;28;20703;-71
2021/07/16 04:27:49;;;;;;;14.60;8.40;;;;;;;24.73;44.17;94769.44;5027798;28;20287;-68
2021/07/16 04:30:18;;;;;;;17.00;8.10;;;;;;;24.74;44.59;94767.56;5029629;28;20546;-68
2021/07/16 04:32:46;;;;;;;12.77;6.53;;;;;;;24.75;43.91;94761.06;5029086;28;20279;-69
2021/07/16 04:35:14;;;;;;;12.37;8.20;;;;;;;24.68;44.44;94761.66;5028368;28;20689;-68
2021/07/16 04:37:43;;;;;;;10.77;7.13;;;;;;;24.73;44.26;94764.09;5027729;28;20206;-65
2021/07/16 04:40:16;;;;;;;13.90;6.07;;;;;;;24.73;43.71;94761.41;5029025;28;20193;-68
2021/07/16 04:42:54;;;;;;;37.03;8.07;;;;;;;24.70;44.18;94738.00;5025445;28;20245;-70
2021/07/16 04:45:22;;;;;;;14.50;5.37;;;;;;;24.73;44.41;94758.72;5029029;28;20374;-66
2021/07/16 04:47:49;;;;;;;11.43;5.13;;;;;;;24.79;44.69;94762.72;5026964;28;20196;-69
2021/07/16 04:50:17;;;;;;;11.90;6.03;;;;;;;24.82;44.33;94767.38;5027635;28;20267;-72
2021/07/16 04:52:46;;;;;;;37.77;30.33;;;;;;;24.88;44.84;94757.94;5028744;28;20583;-68
2021/07/16 04:55:14;;;;;;;77.07;68.73;;;;;;;24.91;45.29;94759.91;5024899;28;20683;-69
2021/07/16 04:57:42;;;;;;;14.53;5.70;;;;;;;24.93;44.59;94762.25;5027611;28;20228;-68
2021/07/16 05:00:10;;;;;;;50.33;35.43;;;;;;;24.84;45.10;94757.06;5028411;28;20217;-70
2021/07/16 05:02:38;;;;;;;35.40;31.67;;;;;;;24.85;45.02;94750.59;5028662;28;20220;-70
2021/07/16 05:05:06;;;;;;;26.47;17.93;;;;;;;24.92;43.85;94758.81;5027940;28;20221;-69
2021/07/16 05:07:33;;;;;;;21.83;14.53;;;;;;;25.14;43.64;94756.59;5030753;28;20320;-70
2021/07/16 05:10:02;;;;;;;19.90;12.67;;;;;;;25.30;42.64;94754.63;5031311;28;20197;-69
2021/07/16 05:12:29;;;;;;;23.97;10.93;;;;;;;25.13;43.38;94761.16;5032772;28;20189;-68
2021/07/16 05:14:56;;;;;;;21.00;10.83;;;;;;;25.05;43.32;94754.13;5032662;28;20196;-69
2021/07/16 05:17:23;;;;;;;20.50;7.23;;;;;;;25.15;43.06;94747.41;5033481;28;20722;-71
2021/07/16 05:19:50;;;;;;;23.20;18.57;;;;;;;25.14;42.79;94745.88;5033386;28;20200;-69
2021/07/16 05:22:18;;;;;;;25.13;20.03;;;;;;;25.32;42.88;94749.69;5036152;28;20557;-68
2021/07/16 05:24:45;;;;;;;11.90;6.37;;;;;;;25.28;43.20;94740.78;5034606;28;20580;-69
2021/07/16 05:27:12;;;;;;;10.47;6.17;;;;;;;25.36;43.44;94742.50;5024592;28;20198;-68
2021/07/16 05:29:38;;;;;;;6.87;6.00;;;;;;;24.97;43.44;94678.13;5029383;28;20232;-69
2021/07/16 05:32:06;;;;;;;13.77;5.60;;;;;;;25.11;43.33;94731.25;5033118;28;20203;-67
2021/07/16 05:34:34;;;;;;;16.10;5.73;;;;;;;25.31;44.09;94729.38;5027761;28;20203;-67
2021/07/16 05:37:01;;;;;;;11.73;5.67;;;;;;;25.33;43.33;94727.13;5033252;28;20197;-67
2021/07/16 05:39:28;;;;;;;12.20;5.40;;;;;;;25.37;43.25;94727.97;5018684;28;20236;-68
2021/07/16 05:41:55;;;;;;;7.97;5.83;;;;;;;25.51;42.68;94726.38;5032837;28;20243;-69
2021/07/16 05:44:23;;;;;;;16.70;6.47;;;;;;;25.65;42.29;94731.25;5032481;28;20197;-67
2021/07/16 05:46:50;;;;;;;12.33;5.67;;;;;;;25.89;42.42;94730.94;5033052;28;20311;-68
2021/07/16 05:49:17;;;;;;;18.17;5.73;;;;;;;25.82;42.94;94733.50;5032062;28;20660;-67
2021/07/16 05:51:43;;;;;;;11.60;4.90;;;;;;;25.72;42.86;94742.13;5033150;28;20245;-69
2021/07/16 05:54:10;;;;;;;9.77;4.53;;;;;;;25.74;43.06;94743.34;5017262;28;20288;-68
2021/07/16 05:56:41;;;;;;;7.53;4.87;;;;;;;25.83;42.16;94729.69;5021297;28;20280;-68
2021/07/16 05:59:08;;;;;;;11.40;4.97;;;;;;;25.85;43.21;94743.53;5031469;28;20296;-68
2021/07/16 06:01:35;;;;;;;10.50;5.03;;;;;;;25.52;42.64;94743.25;5032770;28;20197;-69
2021/07/16 06:04:09;;;;;;;11.37;4.40;;;;;;;25.53;42.56;94747.50;5032825;28;20339;-67
2021/07/16 06:06:37;;;;;;;16.30;5.47;;;;;;;25.99;42.53;94738.41;5018701;28;20271;-67
2021/07/16 06:09:07;;;;;;;14.67;5.07;;;;;;;26.18;42.43;94743.78;5019775;28;20212;-69
2021/07/16 06:11:34;;;;;;;8.53;4.73;;;;;;;26.08;42.13;94733.63;5030950;28;20193;-67
2021/07/16 06:14:01;;;;;;;8.33;5.23;;;;;;;26.20;42.39;94725.41;5032804;28;20193;-67
2021/07/16 06:16:28;;;;;;;11.50;5.17;;;;;;;26.09;42.92;94729.81;5028442;28;20263;-68
2021/07/16 06:18:56;;;;;;;12.63;5.40;;;;;;;26.20;42.06;94722.72;5021734;28;20193;-68
2021/07/16 06:21:23;;;;;;;8.93;4.40;;;;;;;25.92;41.10;94730.22;5029769;28;20225;-68
2021/07/16 06:23:50;;;;;;;13.97;5.53;;;;;;;26.23;41.26;94715.84;5020551;28;20634;-69
2021/07/16 06:26:17;;;;;;;13.37;5.10;;;;;;;26.37;41.79;94722.22;5031930;28;20221;-66
2021/07/16 06:28:43;;;;;;;13.07;5.23;;;;;;;26.64;41.43;94710.38;5013746;28;20561;-68
2021/07/16 06:31:10;;;;;;;12.30;5.00;;;;;;;26.64;40.42;94699.63;5026078;28;20705;-67
2021/07/16 06:33:37;;;;;;;9.13;4.80;;;;;;;26.85;40.63;94705.38;5033441;28;20202;-68
2021/07/16 06:36:05;;;;;;;10.60;4.83;;;;;;;26.87;41.15;94697.72;5018595;28;20189;-67
2021/07/16 06:38:32;;;;;;;13.47;5.43;;;;;;;26.88;40.57;94693.88;5032444;28;20220;-70
2021/07/16 06:41:01;;;;;;;13.10;5.20;;;;;;;26.73;40.39;94692.13;5031258;28;20193;-70
2021/07/16 06:43:29;;;;;;;11.97;5.10;;;;;;;26.96;39.89;94679.41;5031729;28;20198;-68
2021/07/16 06:45:56;;;;;;;15.73;5.20;;;;;;;27.16;40.42;94692.72;5031437;28;20229;-69
2021/07/16 06:48:23;;;;;;;9.77;4.63;;;;;;;27.07;40.56;94684.13;5032239;28;20247;-70
2021/07/16 06:50:51;;;;;;;16.10;4.90;;;;;;;26.66;40.91;94691.22;5028906;28;20193;-69
2021/07/16 06:53:17;;;;;;;10.70;5.17;;;;;;;26.95;40.69;94693.97;5020477;28;20758;-69
2021/07/16 06:55:44;;;;;;;16.60;5.60;;;;;;;27.08;40.51;94691.09;5031044;28;20197;-67
2021/07/16 06:58:11;;;;;;;9.93;5.00;;;;;;;27.20;41.20;94677.41;5035487;28;20284;-73
2021/07/16 07:00:38;;;;;;;14.63;5.10;;;;;;;27.49;40.06;94684.72;5036681;28;20262;-71
2021/07/16 07:03:06;;;;;;;13.70;5.23;;;;;;;27.64;39.96;94681.03;5038818;28;20624;-71
2021/07/16 07:05:57;;;;;;;12.37;5.27;;;;;;;27.59;40.28;94687.50;5035376;28;20209;-74
2021/07/16 07:08:24;;;;;;;12.63;5.30;;;;;;;27.73;40.01;94678.84;5031726;28;20198;-77
2021/07/16 07:10:52;;;;;;;14.40;4.73;;;;;;;27.77;39.39;94679.66;5031174;28;20407;-74
2021/07/16 07:13:19;;;;;;;7.63;4.30;;;;;;;27.78;39.58;94654.25;5025906;28;20205;-73
2021/07/16 07:15:46;;;;;;;12.33;5.50;;;;;;;28.07;40.06;94671.50;5011468;28;20224;-72
2021/07/16 07:18:13;;;;;;;10.17;5.40;;;;;;;28.13;39.41;94660.03;5029783;28;20220;-72
2021/07/16 07:20:40;;;;;;;17.70;5.73;;;;;;;28.24;39.30;94666.28;5031291;28;20193;-73
2021/07/16 07:23:07;;;;;;;12.47;5.03;;;;;;;28.07;38.67;94655.31;5031091;28;20278;-72
2021/07/16 07:25:34;;;;;;;17.67;5.00;;;;;;;27.91;39.18;94650.16;5031088;28;20205;-72
2021/07/16 07:28:02;;;;;;;8.40;4.87;;;;;;;27.84;39.30;94655.50;5031156;28;20666;-75
2021/07/16 07:30:29;;;;;;;9.50;4.70;;;;;;;27.90;39.11;94652.06;5031262;28;20201;-75
2021/07/16 07:32:56;;;;;;;12.57;5.40;;;;;;;27.80;39.52;94657.34;5031099;28;20204;-72
2021/07/16 07:35:23;;;;;;;13.63;5.13;;;;;;;27.88;39.42;94648.97;5030040;28;20244;-73
2021/07/16 07:37:51;;;;;;;12.53;5.10;;;;;;;28.21;39.17;94647.38;5024824;28;20615;-71
2021/07/16 07:40:19;;;;;;;8.73;5.07;;;;;;;28.39;39.87;94651.78;5023912;28;20204;-71
2021/07/16 07:42:46;;;;;;;11.67;5.03;;;;;;;28.60;39.42;94661.94;5030459;28;20225;-71
2021/07/16 07:45:13;;;;;;;16.93;5.30;;;;;;;28.65;39.14;94659.69;5031206;28;20512;-76
2021/07/16 07:47:41;;;;;;;15.07;4.77;;;;;;;28.81;38.11;94662.13;5030959;28;20201;-71
2021/07/16 07:50:14;;;;;;;12.00;4.77;;;;;;;28.95;38.30;94656.78;5030827;28;20212;-70
2021/07/16 07:52:41;;;;;;;11.07;4.50;;;;;;;28.98;37.73;94646.03;5016757;28;21070;-72
2021/07/16 07:55:09;;;;;;;5.50;4.13;;;;;;;28.96;37.90;94647.53;5021231;28;20209;-74
2021/07/16 07:57:37;;;;;;;11.93;4.33;;;;;;;29.12;37.80;94644.59;5025009;28;20648;-75
2021/07/16 08:00:06;;;;;;;10.83;4.77;;;;;;;29.22;37.96;94644.63;5019003;28;20196;-75
2021/07/16 08:02:37;;;;;;;11.40;4.43;;;;;;;29.46;37.63;94643.94;5030622;28;20267;-74
2021/07/16 08:05:06;;;;;;;9.97;4.80;;;;;;;29.51;38.10;94646.28;5030288;28;20247;-74
2021/07/16 08:07:33;;;;;;;8.70;4.40;;;;;;;29.27;37.34;94633.44;5030833;28;20717;-74
2021/07/16 08:10:00;;;;;;;8.60;5.20;;;;;;;29.41;36.31;94632.75;5030425;28;20247;-74
2021/07/16 08:12:27;;;;;;;12.17;5.40;;;;;;;29.65;36.89;94632.06;5030477;28;20262;-73
2021/07/16 08:14:54;;;;;;;10.73;5.43;;;;;;;29.63;36.90;94615.47;5030234;28;20197;-76
2021/07/16 08:17:21;;;;;;;12.03;4.43;;;;;;;29.64;36.15;94622.38;5020219;28;20181;-75
2021/07/16 08:19:48;;;;;;;13.70;5.10;;;;;;;29.57;37.01;94633.19;5027246;28;20228;-76
2021/07/16 08:22:15;;;;;;;20.53;5.70;;;;;;;29.88;36.01;94637.91;5030965;28;20217;-72
2021/07/16 08:24:41;;;;;;;15.17;5.90;;;;;;;29.73;35.94;94636.31;5028766;28;20824;-73
2021/07/16 08:27:08;;;;;;;12.07;5.30;;;;;;;29.96;35.72;94639.47;5010971;28;20767;-72
2021/07/16 08:29:35;;;;;;;14.30;5.10;;;;;;;30.00;35.96;94628.66;5024757;28;21062;-76
2021/07/16 08:32:03;;;;;;;9.27;5.33;;;;;;;30.07;35.50;94636.78;5016170;28;20573;-78
2021/07/16 08:34:30;;;;;;;15.90;5.27;;;;;;;30.12;35.34;94631.78;5030203;28;20296;-72
2021/07/16 08:36:57;;;;;;;13.03;5.80;;;;;;;30.17;35.59;94639.50;5030371;28;20250;-72
2021/07/16 08:39:25;;;;;;;9.27;5.60;;;;;;;30.21;35.61;94637.56;5030465;28;20204;-72
2021/07/16 08:41:53;;;;;;;10.63;5.80;;;;;;;30.24;35.20;94636.78;5030078;28;20722;-72
2021/07/16 08:44:20;;;;;;;15.40;5.73;;;;;;;30.30;34.47;94634.50;5030313;28;20189;-75
2021/07/16 08:46:48;;;;;;;10.57;5.30;;;;;;;30.35;35.06;94629.47;5031602;28;20298;-72
2021/07/16 08:49:16;;;;;;;8.07;5.80;;;;;;;30.56;35.22;94620.59;5031600;28;20209;-74
2021/07/16 08:51:43;;;;;;;10.10;6.70;;;;;;;30.31;35.14;94628.69;5027316;28;20213;-71
2021/07/16 08:54:16;;;;;;;10.40;7.47;;;;;;;30.06;35.40;94622.50;5033852;28;20204;-75
2021/07/16 08:56:43;;;;;;;18.97;12.00;;;;;;;30.37;35.35;94621.75;5035144;28;20204;-73
2021/07/16 08:59:13;;;;;;;13.80;5.77;;;;;;;30.35;35.23;94628.69;5031361;28;20197;-75
2021/07/16 09:01:42;;;;;;;19.20;10.37;;;;;;;30.46;35.56;94614.03;5032329;28;20571;-72
2021/07/16 09:04:10;;;;;;;14.53;10.33;;;;;;;30.53;35.08;94619.41;5016681;28;20201;-71
2021/07/16 09:06:43;;;;;;;11.13;5.97;;;;;;;30.59;35.02;94612.47;5028161;28;20222;-73
2021/07/16 09:09:11;;;;;;;19.83;5.93;;;;;;;30.54;35.31;94612.09;5019283;28;20205;-72
2021/07/16 09:11:40;;;;;;;10.13;6.03;;;;;;;30.58;35.79;94610.91;5028200;28;20740;-75
2021/07/16 09:14:18;;;;;;;12.70;6.73;;;;;;;30.78;36.00;94608.56;5026485;28;20193;-78
2021/07/16 09:17:09;;;;;;;11.57;6.93;;;;;;;30.94;35.24;94605.44;5034261;28;20193;-72
2021/07/16 09:19:38;;;;;;;17.03;6.67;;;;;;;31.02;34.69;94607.78;5030555;28;20215;-73
2021/07/16 09:22:17;;;;;;;16.30;7.33;;;;;;;30.95;34.46;94607.75;5021853;28;20197;-72
2021/07/16 09:24:59;;;;;;;15.10;7.10;;;;;;;30.91;34.13;94606.25;5025189;28;20690;-72
2021/07/16 09:27:41;;;;;;;16.83;7.17;;;;;;;31.05;34.38;94606.97;5030642;28;20221;-75
2021/07/16 09:30:23;;;;;;;19.47;7.73;;;;;;;31.21;34.70;94601.09;5015522;28;20197;-75
2021/07/16 09:33:04;;;;;;;11.07;8.27;;;;;;;31.27;33.28;94603.03;5029550;28;20200;-81
2021/07/16 09:35:40;;;;;;;12.13;7.47;;;;;;;31.42;34.04;94609.19;5025100;28;20196;-75
2021/07/16 09:38:13;;;;;;;12.53;6.97;;;;;;;31.39;33.77;94607.25;5031644;28;20201;-71
2021/07/16 09:40:52;;;;;;;14.13;7.10;;;;;;;31.21;33.10;94598.41;5014415;28;20205;-75
2021/07/16 09:43:23;;;;;;;13.50;7.20;;;;;;;31.52;33.88;94589.38;5029779;28;20196;-70
2021/07/16 09:46:01;;;;;;;9.40;7.73;;;;;;;31.53;33.53;94588.22;5028614;28;20198;-70
2021/07/16 09:48:39;;;;;;;15.87;7.37;;;;;;;31.62;33.10;94591.28;5029875;28;20208;-74
2021/07/16 09:51:26;;;;;;;12.17;7.70;;;;;;;31.87;33.15;94589.16;5029332;28;20188;-72
2021/07/16 09:54:01;;;;;;;10.80;7.13;;;;;;;31.79;33.17;94584.94;5032627;28;20209;-77
2021/07/16 09:56:30;;;;;;;9.10;7.27;;;;;;;31.82;33.39;94573.34;5033190;28;20741;-71
2021/07/16 09:59:03;;;;;;;20.43;8.30;;;;;;;31.87;34.12;94591.88;5033643;28;20247;-76
2021/07/16 10:01:32;;;;;;;12.67;7.83;;;;;;;31.94;34.11;94578.31;5019320;28;20710;-74
2021/07/16 10:04:05;;;;;;;15.63;6.80;;;;;;;32.10;33.81;94578.56;5033059;28;20208;-77
2021/07/16 10:06:33;;;;;;;14.63;7.77;;;;;;;32.16;33.73;94571.56;5032333;28;20216;-77
2021/07/16 10:09:00;;;;;;;16.80;7.83;;;;;;;32.11;33.01;94576.63;5033232;28;20205;-75
2021/07/16 10:11:28;;;;;;;13.37;7.83;;;;;;;32.11;32.29;94585.53;5032654;28;20208;-76
2021/07/16 10:13:57;;;;;;;11.47;7.80;;;;;;;32.12;32.60;94570.81;5032999;28;20197;-69
2021/07/16 10:16:25;;;;;;;12.83;7.80;;;;;;;32.26;32.66;94564.50;5032374;28;20263;-75
2021/07/16 10:18:53;;;;;;;16.63;7.90;;;;;;;32.22;32.42;94578.09;5033100;28;20193;-68
2021/07/16 10:21:22;;;;;;;13.20;7.37;;;;;;;32.48;32.46;94569.34;5032577;28;20545;-73
2021/07/16 10:23:50;;;;;;;12.40;7.20;;;;;;;32.66;31.90;94566.47;5033426;28;20280;-76
2021/07/16 10:26:21;;;;;;;9.07;7.57;;;;;;;32.59;31.84;94567.28;5032370;28;20227;-76
2021/07/16 10:28:49;;;;;;;17.60;7.17;;;;;;;32.83;31.59;94559.31;5013816;28;20214;-72
2021/07/16 10:31:32;;;;;;;12.07;7.30;;;;;;;32.86;31.87;94569.34;5027300;28;20185;-75
2021/07/16 10:33:59;;;;;;;10.27;7.27;;;;;;;32.85;31.01;94562.41;5027489;28;20295;-75
2021/07/16 10:36:50;;;;;;;13.83;7.33;;;;;;;32.80;30.78;94556.25;5032694;28;20189;-67
2021/07/16 10:39:37;;;;;;;14.60;7.30;;;;;;;33.18;30.72;94558.91;5032444;28;20194;-74
2021/07/16 10:42:26;;;;;;;9.33;6.43;;;;;;;33.21;31.17;94563.53;5032465;28;20275;-74
2021/07/16 10:44:59;;;;;;;11.87;7.33;;;;;;;32.96;31.58;94546.75;5021377;28;20300;-71
2021/07/16 10:47:33;;;;;;;9.33;7.03;;;;;;;32.63;31.45;94545.56;5032574;28;20252;-76
2021/07/16 10:50:02;;;;;;;9.83;6.77;;;;;;;32.74;31.47;94551.63;5033527;28;20216;-73
2021/07/16 10:52:43;;;;;;;11.43;7.83;;;;;;;33.45;31.54;94551.63;5039616;28;20201;-73
2021/07/16 10:55:11;;;;;;;8.63;7.23;;;;;;;33.21;30.71;94547.25;5038659;28;20189;-71
2021/07/16 10:57:43;;;;;;;15.53;7.40;;;;;;;33.42;31.44;94544.25;5017917;28;20284;-72
2021/07/16 11:00:14;;;;;;;10.00;7.27;;;;;;;33.39;30.57;94536.91;5031856;28;20193;-72
2021/07/16 11:02:42;;;;;;;13.87;7.23;;;;;;;33.31;30.16;94530.81;5032599;28;20589;-70
2021/07/16 11:05:32;;;;;;;14.07;7.53;;;;;;;33.42;30.60;94525.22;5032322;28;20204;-74
2021/07/16 11:08:04;;;;;;;8.63;6.87;;;;;;;33.57;30.36;94521.16;5031457;28;20312;-76
2021/07/16 11:10:47;;;;;;;14.63;7.67;;;;;;;33.68;31.14;94521.78;5031654;28;20749;-73
2021/07/16 11:13:39;;;;;;;14.50;7.07;;;;;;;33.37;30.13;94523.75;5018298;28;20197;-73
2021/07/16 11:16:30;;;;;;;12.17;7.27;;;;;;;33.48;30.04;94518.19;5031651;28;20284;-74
2021/07/16 11:19:07;;;;;;;13.57;6.97;;;;;;;33.60;30.46;94515.69;5031223;28;20244;-72
2021/07/16 11:21:40;;;;;;;11.60;7.13;;;;;;;34.09;29.68;94508.72;5032123;28;20686;-74
2021/07/16 11:24:18;;;;;;;11.13;6.83;;;;;;;33.38;30.15;94503.56;5020823;28;20189;-74
2021/07/16 11:26:51;;;;;;;11.53;6.93;;;;;;;33.63;30.89;94500.50;5029742;28;20295;-73
2021/07/16 11:29:21;;;;;;;12.43;7.00;;;;;;;33.70;30.58;94508.56;5019901;28;20210;-74
2021/07/16 11:32:20;;;;;;;10.63;6.77;;;;;;;32.81;30.32;94486.44;5028477;28;20208;-77
2021/07/16 11:34:48;;;;;;;13.43;7.00;;;;;;;33.50;30.65;94503.00;5034133;28;20255;-76
2021/07/16 11:37:48;;;;;;;17.23;6.97;;;;;;;34.07;29.87;94497.47;5021000;28;20200;-69